sensor_id;sensor_type;location;lat;lon;timestamp;P1;durP1;ratioP1;P2;durP2;ratioP2
10977;SDS011;5542;48.272;10.794;2023-07-29T00:01:10;1.70;;;1.60;;
10977;SDS011;5542;48.272;10.794;2023-07-29T00:03:37;1.87;;;1.77;;
10977;SDS011;5542;48.272;10.794;2023-07-29T00:06:03;1.50;;;1.40;;
10977;SDS011;5542;48.272;10.794;2023-07-29T00:08:30;2.03;;;1.83;;
10977;SDS011;5542;48.272;10.794;2023-07-29T00:10:56;1.70;;;1.60;;
10977;SDS011;5542;48.272;10.794;2023-07-29T00:13:23;2.00;;;1.90;;
10977;SDS011;5542;48.272;10.794;2023-07-29T00:15:49;1.80;;;1.70;;
10977;SDS011;5542;48.272;10.794;2023-07-29T00:18:17;2.00;;;1.90;;
10977;SDS011;5542;48.272;10.794;2023-07-29T00:20:44;1.52;;;1.42;;
10977;SDS011;5542;48.272;10.794;2023-07-29T00:23:10;1.55;;;1.50;;
10977;SDS011;5542;48.272;10.794;2023-07-29T00:25:37;1.83;;;1.73;;
10977;SDS011;5542;48.272;10.794;2023-07-29T00:28:04;1.90;;;1.80;;
10977;SDS011;5542;48.272;10.794;2023-07-29T00:30:31;1.50;;;1.40;;
10977;SDS011;5542;48.272;10.794;2023-07-29T00:32:57;1.50;;;1.42;;
10977;SDS011;5542;48.272;10.794;2023-07-29T00:35:25;1.80;;;1.70;;
10977;SDS011;5542;48.272;10.794;2023-07-29T00:37:52;1.80;;;1.70;;
10977;SDS011;5542;48.272;10.794;2023-07-29T00:40:19;1.42;;;1.33;;
10977;SDS011;5542;48.272;10.794;2023-07-29T00:42:47;2.00;;;1.90;;
10977;SDS011;5542;48.272;10.794;2023-07-29T00:45:14;1.63;;;1.52;;
10977;SDS011;5542;48.272;10.794;2023-07-29T00:47:41;1.67;;;1.57;;
10977;SDS011;5542;48.272;10.794;2023-07-29T00:50:08;1.42;;;1.33;;
10977;SDS011;5542;48.272;10.794;2023-07-29T00:52:37;1.20;;;1.20;;
10977;SDS011;5542;48.272;10.794;2023-07-29T00:55:04;1.13;;;1.13;;
10977;SDS011;5542;48.272;10.794;2023-07-29T00:57:33;1.13;;;1.13;;
10977;SDS011;5542;48.272;10.794;2023-07-29T00:59:59;1.58;;;1.48;;
10977;SDS011;5542;48.272;10.794;2023-07-29T01:02:27;2.13;;;2.03;;
10977;SDS011;5542;48.272;10.794;2023-07-29T01:04:55;1.70;;;1.60;;
10977;SDS011;5542;48.272;10.794;2023-07-29T01:07:26;1.73;;;1.63;;
10977;SDS011;5542;48.272;10.794;2023-07-29T01:10:02;1.60;;;1.50;;
10977;SDS011;5542;48.272;10.794;2023-07-29T01:12:35;1.40;;;1.30;;
10977;SDS011;5542;48.272;10.794;2023-07-29T01:15:08;2.03;;;1.70;;
10977;SDS011;5542;48.272;10.794;2023-07-29T01:17:40;1.15;;;1.15;;
10977;SDS011;5542;48.272;10.794;2023-07-29T01:20:11;1.17;;;1.17;;
10977;SDS011;5542;48.272;10.794;2023-07-29T01:22:40;1.07;;;1.07;;
10977;SDS011;5542;48.272;10.794;2023-07-29T01:25:09;1.00;;;1.00;;
10977;SDS011;5542;48.272;10.794;2023-07-29T01:27:36;1.20;;;1.20;;
10977;SDS011;5542;48.272;10.794;2023-07-29T01:30:03;1.30;;;1.20;;
10977;SDS011;5542;48.272;10.794;2023-07-29T01:32:32;1.20;;;1.20;;
10977;SDS011;5542;48.272;10.794;2023-07-29T01:35:09;1.80;;;1.70;;
10977;SDS011;5542;48.272;10.794;2023-07-29T01:37:41;1.77;;;1.67;;
10977;SDS011;5542;48.272;10.794;2023-07-29T01:40:12;1.60;;;1.50;;
10977;SDS011;5542;48.272;10.794;2023-07-29T01:42:39;1.10;;;1.00;;
10977;SDS011;5542;48.272;10.794;2023-07-29T01:45:06;1.42;;;1.33;;
10977;SDS011;5542;48.272;10.794;2023-07-29T01:47:33;1.40;;;1.30;;
10977;SDS011;5542;48.272;10.794;2023-07-29T01:49:59;1.40;;;1.30;;
10977;SDS011;5542;48.272;10.794;2023-07-29T01:52:26;1.23;;;1.13;;
10977;SDS011;5542;48.272;10.794;2023-07-29T01:54:52;1.40;;;1.30;;
10977;SDS011;5542;48.272;10.794;2023-07-29T01:57:20;1.25;;;1.20;;
10977;SDS011;5542;48.272;10.794;2023-07-29T01:59:47;1.58;;;1.48;;
10977;SDS011;5542;48.272;10.794;2023-07-29T02:02:14;1.05;;;1.05;;
10977;SDS011;5542;48.272;10.794;2023-07-29T02:04:40;1.45;;;1.35;;
10977;SDS011;5542;48.272;10.794;2023-07-29T02:07:07;1.60;;;1.50;;
10977;SDS011;5542;48.272;10.794;2023-07-29T02:09:33;1.55;;;1.45;;
10977;SDS011;5542;48.272;10.794;2023-07-29T02:12:00;2.03;;;1.88;;
10977;SDS011;5542;48.272;10.794;2023-07-29T02:14:28;2.42;;;2.22;;
10977;SDS011;5542;48.272;10.794;2023-07-29T02:16:55;2.40;;;2.20;;
10977;SDS011;5542;48.272;10.794;2023-07-29T02:19:21;2.40;;;2.20;;
10977;SDS011;5542;48.272;10.794;2023-07-29T02:21:48;2.40;;;2.20;;
10977;SDS011;5542;48.272;10.794;2023-07-29T02:24:14;2.50;;;2.30;;
10977;SDS011;5542;48.272;10.794;2023-07-29T02:26:41;3.53;;;2.67;;
10977;SDS011;5542;48.272;10.794;2023-07-29T02:29:08;2.28;;;2.00;;
10977;SDS011;5542;48.272;10.794;2023-07-29T02:31:36;1.70;;;1.60;;
10977;SDS011;5542;48.272;10.794;2023-07-29T02:34:03;2.45;;;2.25;;
10977;SDS011;5542;48.272;10.794;2023-07-29T02:36:30;2.45;;;2.25;;
10977;SDS011;5542;48.272;10.794;2023-07-29T02:38:56;2.25;;;2.05;;
10977;SDS011;5542;48.272;10.794;2023-07-29T02:41:23;2.28;;;2.17;;
10977;SDS011;5542;48.272;10.794;2023-07-29T02:43:50;2.90;;;2.70;;
10977;SDS011;5542;48.272;10.794;2023-07-29T02:46:17;4.05;;;2.55;;
10977;SDS011;5542;48.272;10.794;2023-07-29T02:48:45;2.97;;;2.55;;
10977;SDS011;5542;48.272;10.794;2023-07-29T02:51:12;2.08;;;1.98;;
10977;SDS011;5542;48.272;10.794;2023-07-29T02:53:38;2.40;;;2.20;;
10977;SDS011;5542;48.272;10.794;2023-07-29T02:56:05;2.80;;;2.60;;
10977;SDS011;5542;48.272;10.794;2023-07-29T02:58:34;2.58;;;2.38;;
10977;SDS011;5542;48.272;10.794;2023-07-29T03:01:01;2.38;;;2.28;;
10977;SDS011;5542;48.272;10.794;2023-07-29T03:03:29;3.03;;;2.80;;
10977;SDS011;5542;48.272;10.794;2023-07-29T03:06:00;2.55;;;2.35;;
10977;SDS011;5542;48.272;10.794;2023-07-29T03:08:28;2.53;;;2.30;;
10977;SDS011;5542;48.272;10.794;2023-07-29T03:10:54;2.70;;;2.50;;
10977;SDS011;5542;48.272;10.794;2023-07-29T03:13:22;2.83;;;2.63;;
10977;SDS011;5542;48.272;10.794;2023-07-29T03:15:48;3.00;;;2.67;;
10977;SDS011;5542;48.272;10.794;2023-07-29T03:18:15;2.80;;;2.60;;
10977;SDS011;5542;48.272;10.794;2023-07-29T03:20:42;2.55;;;2.35;;
10977;SDS011;5542;48.272;10.794;2023-07-29T03:23:09;3.17;;;2.30;;
10977;SDS011;5542;48.272;10.794;2023-07-29T03:25:36;3.25;;;2.63;;
10977;SDS011;5542;48.272;10.794;2023-07-29T03:28:03;2.75;;;2.55;;
10977;SDS011;5542;48.272;10.794;2023-07-29T03:30:29;2.35;;;2.17;;
10977;SDS011;5542;48.272;10.794;2023-07-29T03:32:56;2.17;;;2.05;;
10977;SDS011;5542;48.272;10.794;2023-07-29T03:35:22;2.90;;;2.70;;
10977;SDS011;5542;48.272;10.794;2023-07-29T03:37:49;2.33;;;2.22;;
10977;SDS011;5542;48.272;10.794;2023-07-29T03:40:17;1.67;;;1.58;;
10977;SDS011;5542;48.272;10.794;2023-07-29T03:42:44;1.73;;;1.63;;
10977;SDS011;5542;48.272;10.794;2023-07-29T03:45:10;1.55;;;1.45;;
10977;SDS011;5542;48.272;10.794;2023-07-29T03:47:37;1.77;;;1.67;;
10977;SDS011;5542;48.272;10.794;2023-07-29T03:50:04;1.70;;;1.60;;
10977;SDS011;5542;48.272;10.794;2023-07-29T03:52:31;1.33;;;1.33;;
10977;SDS011;5542;48.272;10.794;2023-07-29T03:54:58;1.60;;;1.50;;
10977;SDS011;5542;48.272;10.794;2023-07-29T03:57:25;1.45;;;1.35;;
10977;SDS011;5542;48.272;10.794;2023-07-29T03:59:54;1.40;;;1.30;;
10977;SDS011;5542;48.272;10.794;2023-07-29T04:02:20;1.00;;;1.00;;
10977;SDS011;5542;48.272;10.794;2023-07-29T04:04:47;1.40;;;1.30;;
10977;SDS011;5542;48.272;10.794;2023-07-29T04:07:13;1.53;;;1.43;;
10977;SDS011;5542;48.272;10.794;2023-07-29T04:09:40;1.58;;;1.48;;
10977;SDS011;5542;48.272;10.794;2023-07-29T04:12:08;1.80;;;1.70;;
10977;SDS011;5542;48.272;10.794;2023-07-29T04:14:36;2.13;;;1.92;;
10977;SDS011;5542;48.272;10.794;2023-07-29T04:17:02;1.95;;;1.80;;
10977;SDS011;5542;48.272;10.794;2023-07-29T04:19:29;1.90;;;1.80;;
10977;SDS011;5542;48.272;10.794;2023-07-29T04:21:56;1.80;;;1.70;;
10977;SDS011;5542;48.272;10.794;2023-07-29T04:24:23;1.97;;;1.87;;
10977;SDS011;5542;48.272;10.794;2023-07-29T04:26:49;1.85;;;1.75;;
10977;SDS011;5542;48.272;10.794;2023-07-29T04:29:16;2.67;;;2.47;;
10977;SDS011;5542;48.272;10.794;2023-07-29T04:31:44;1.90;;;1.80;;
10977;SDS011;5542;48.272;10.794;2023-07-29T04:34:10;2.67;;;2.47;;
10977;SDS011;5542;48.272;10.794;2023-07-29T04:36:37;2.30;;;2.10;;
10977;SDS011;5542;48.272;10.794;2023-07-29T04:39:04;2.00;;;1.90;;
10977;SDS011;5542;48.272;10.794;2023-07-29T04:41:30;2.28;;;2.08;;
10977;SDS011;5542;48.272;10.794;2023-07-29T04:43:57;2.53;;;2.33;;
10977;SDS011;5542;48.272;10.794;2023-07-29T04:46:23;2.60;;;2.40;;
10977;SDS011;5542;48.272;10.794;2023-07-29T04:48:51;3.00;;;2.45;;
10977;SDS011;5542;48.272;10.794;2023-07-29T04:51:18;2.70;;;2.50;;
10977;SDS011;5542;48.272;10.794;2023-07-29T04:53:44;2.30;;;2.13;;
10977;SDS011;5542;48.272;10.794;2023-07-29T04:56:11;2.60;;;2.40;;
10977;SDS011;5542;48.272;10.794;2023-07-29T04:58:37;2.03;;;1.93;;
10977;SDS011;5542;48.272;10.794;2023-07-29T05:01:04;2.72;;;2.50;;
10977;SDS011;5542;48.272;10.794;2023-07-29T05:03:31;2.05;;;1.95;;
10977;SDS011;5542;48.272;10.794;2023-07-29T05:05:59;2.45;;;2.25;;
10977;SDS011;5542;48.272;10.794;2023-07-29T05:08:25;2.42;;;2.22;;
10977;SDS011;5542;48.272;10.794;2023-07-29T05:10:52;2.80;;;2.35;;
10977;SDS011;5542;48.272;10.794;2023-07-29T05:13:19;2.55;;;2.38;;
10977;SDS011;5542;48.272;10.794;2023-07-29T05:15:46;2.33;;;2.15;;
10977;SDS011;5542;48.272;10.794;2023-07-29T05:18:13;2.43;;;2.23;;
10977;SDS011;5542;48.272;10.794;2023-07-29T05:20:40;2.72;;;2.30;;
10977;SDS011;5542;48.272;10.794;2023-07-29T05:23:08;4.70;;;2.67;;
10977;SDS011;5542;48.272;10.794;2023-07-29T05:25:35;2.40;;;2.20;;
10977;SDS011;5542;48.272;10.794;2023-07-29T05:28:01;2.40;;;2.25;;
10977;SDS011;5542;48.272;10.794;2023-07-29T05:30:28;2.63;;;2.42;;
10977;SDS011;5542;48.272;10.794;2023-07-29T05:32:56;2.47;;;2.28;;
10977;SDS011;5542;48.272;10.794;2023-07-29T05:35:22;2.80;;;2.47;;
10977;SDS011;5542;48.272;10.794;2023-07-29T05:37:49;2.80;;;2.60;;
10977;SDS011;5542;48.272;10.794;2023-07-29T05:40:17;5.25;;;2.60;;
10977;SDS011;5542;48.272;10.794;2023-07-29T05:42:44;2.70;;;2.50;;
10977;SDS011;5542;48.272;10.794;2023-07-29T05:45:11;2.28;;;2.10;;
10977;SDS011;5542;48.272;10.794;2023-07-29T05:47:37;2.70;;;2.50;;
10977;SDS011;5542;48.272;10.794;2023-07-29T05:50:04;2.83;;;2.63;;
10977;SDS011;5542;48.272;10.794;2023-07-29T05:52:32;2.60;;;2.40;;
10977;SDS011;5542;48.272;10.794;2023-07-29T05:54:58;2.60;;;2.40;;
10977;SDS011;5542;48.272;10.794;2023-07-29T05:57:26;3.15;;;2.30;;
10977;SDS011;5542;48.272;10.794;2023-07-29T05:59:54;2.63;;;2.42;;
10977;SDS011;5542;48.272;10.794;2023-07-29T06:02:20;4.78;;;2.60;;
10977;SDS011;5542;48.272;10.794;2023-07-29T06:04:47;2.97;;;2.20;;
10977;SDS011;5542;48.272;10.794;2023-07-29T06:07:13;2.58;;;2.38;;
10977;SDS011;5542;48.272;10.794;2023-07-29T06:09:40;2.17;;;2.00;;
10977;SDS011;5542;48.272;10.794;2023-07-29T06:12:07;2.63;;;2.42;;
10977;SDS011;5542;48.272;10.794;2023-07-29T06:14:35;2.63;;;2.42;;
10977;SDS011;5542;48.272;10.794;2023-07-29T06:17:02;2.45;;;2.25;;
10977;SDS011;5542;48.272;10.794;2023-07-29T06:19:29;3.85;;;2.80;;
10977;SDS011;5542;48.272;10.794;2023-07-29T06:21:55;3.47;;;2.60;;
10977;SDS011;5542;48.272;10.794;2023-07-29T06:24:22;2.80;;;2.60;;
10977;SDS011;5542;48.272;10.794;2023-07-29T06:26:48;2.38;;;2.17;;
10977;SDS011;5542;48.272;10.794;2023-07-29T06:29:15;2.88;;;2.67;;
10977;SDS011;5542;48.272;10.794;2023-07-29T06:31:43;3.58;;;2.63;;
10977;SDS011;5542;48.272;10.794;2023-07-29T06:34:09;2.80;;;2.60;;
10977;SDS011;5542;48.272;10.794;2023-07-29T06:36:36;2.45;;;2.25;;
10977;SDS011;5542;48.272;10.794;2023-07-29T06:39:03;2.38;;;2.20;;
10977;SDS011;5542;48.272;10.794;2023-07-29T06:41:29;2.50;;;2.30;;
10977;SDS011;5542;48.272;10.794;2023-07-29T06:43:56;2.28;;;2.15;;
10977;SDS011;5542;48.272;10.794;2023-07-29T06:46:23;2.55;;;2.35;;
10977;SDS011;5542;48.272;10.794;2023-07-29T06:48:51;2.72;;;2.45;;
10977;SDS011;5542;48.272;10.794;2023-07-29T06:51:17;2.55;;;2.35;;
10977;SDS011;5542;48.272;10.794;2023-07-29T06:53:44;3.10;;;2.80;;
10977;SDS011;5542;48.272;10.794;2023-07-29T06:56:10;2.55;;;2.35;;
10977;SDS011;5542;48.272;10.794;2023-07-29T06:58:37;3.00;;;2.67;;
10977;SDS011;5542;48.272;10.794;2023-07-29T07:01:04;2.93;;;2.43;;
10977;SDS011;5542;48.272;10.794;2023-07-29T07:03:30;3.92;;;2.67;;
10977;SDS011;5542;48.272;10.794;2023-07-29T07:05:58;2.33;;;2.22;;
10977;SDS011;5542;48.272;10.794;2023-07-29T07:08:25;2.70;;;2.50;;
10977;SDS011;5542;48.272;10.794;2023-07-29T07:10:51;2.67;;;2.47;;
10977;SDS011;5542;48.272;10.794;2023-07-29T07:13:18;3.40;;;2.33;;
10977;SDS011;5542;48.272;10.794;2023-07-29T07:15:44;3.00;;;2.80;;
10977;SDS011;5542;48.272;10.794;2023-07-29T07:18:11;2.63;;;2.42;;
10977;SDS011;5542;48.272;10.794;2023-07-29T07:20:37;3.50;;;2.90;;
10977;SDS011;5542;48.272;10.794;2023-07-29T07:23:05;2.88;;;2.58;;
10977;SDS011;5542;48.272;10.794;2023-07-29T07:25:35;2.50;;;2.30;;
10977;SDS011;5542;48.272;10.794;2023-07-29T07:28:02;2.92;;;2.63;;
10977;SDS011;5542;48.272;10.794;2023-07-29T07:30:29;3.67;;;3.00;;
10977;SDS011;5542;48.272;10.794;2023-07-29T07:32:55;2.60;;;2.40;;
10977;SDS011;5542;48.272;10.794;2023-07-29T07:35:22;2.95;;;2.72;;
10977;SDS011;5542;48.272;10.794;2023-07-29T07:37:48;2.50;;;2.30;;
10977;SDS011;5542;48.272;10.794;2023-07-29T07:40:16;2.40;;;2.20;;
10977;SDS011;5542;48.272;10.794;2023-07-29T07:42:43;2.58;;;2.38;;
10977;SDS011;5542;48.272;10.794;2023-07-29T07:45:09;2.78;;;2.55;;
10977;SDS011;5542;48.272;10.794;2023-07-29T07:47:36;2.70;;;2.50;;
10977;SDS011;5542;48.272;10.794;2023-07-29T07:50:03;2.70;;;2.50;;
10977;SDS011;5542;48.272;10.794;2023-07-29T07:52:30;2.78;;;2.55;;
10977;SDS011;5542;48.272;10.794;2023-07-29T07:54:56;2.85;;;2.65;;
10977;SDS011;5542;48.272;10.794;2023-07-29T07:57:24;3.08;;;2.75;;
10977;SDS011;5542;48.272;10.794;2023-07-29T07:59:51;3.20;;;2.90;;
10977;SDS011;5542;48.272;10.794;2023-07-29T08:02:17;3.05;;;2.70;;
10977;SDS011;5542;48.272;10.794;2023-07-29T08:04:45;2.70;;;2.50;;
10977;SDS011;5542;48.272;10.794;2023-07-29T08:07:12;2.75;;;2.55;;
10977;SDS011;5542;48.272;10.794;2023-07-29T08:09:39;2.70;;;2.50;;
10977;SDS011;5542;48.272;10.794;2023-07-29T08:12:06;2.63;;;2.42;;
10977;SDS011;5542;48.272;10.794;2023-07-29T08:14:34;3.05;;;2.80;;
10977;SDS011;5542;48.272;10.794;2023-07-29T08:17:00;2.63;;;2.42;;
10977;SDS011;5542;48.272;10.794;2023-07-29T08:19:28;3.13;;;2.83;;
10977;SDS011;5542;48.272;10.794;2023-07-29T08:21:54;3.90;;;2.60;;
10977;SDS011;5542;48.272;10.794;2023-07-29T08:24:21;3.20;;;2.90;;
10977;SDS011;5542;48.272;10.794;2023-07-29T08:26:47;3.15;;;2.80;;
10977;SDS011;5542;48.272;10.794;2023-07-29T08:29:14;3.00;;;2.80;;
10977;SDS011;5542;48.272;10.794;2023-07-29T08:31:42;2.88;;;2.67;;
10977;SDS011;5542;48.272;10.794;2023-07-29T08:34:08;3.05;;;2.75;;
10977;SDS011;5542;48.272;10.794;2023-07-29T08:36:35;3.05;;;2.80;;
10977;SDS011;5542;48.272;10.794;2023-07-29T08:39:02;3.03;;;2.83;;
10977;SDS011;5542;48.272;10.794;2023-07-29T08:41:29;2.70;;;2.50;;
10977;SDS011;5542;48.272;10.794;2023-07-29T08:44:01;2.90;;;2.60;;
10977;SDS011;5542;48.272;10.794;2023-07-29T08:46:35;3.33;;;2.60;;
10977;SDS011;5542;48.272;10.794;2023-07-29T08:49:04;3.40;;;2.60;;
10977;SDS011;5542;48.272;10.794;2023-07-29T08:51:31;3.00;;;2.80;;
10977;SDS011;5542;48.272;10.794;2023-07-29T08:53:59;3.38;;;2.88;;
10977;SDS011;5542;48.272;10.794;2023-07-29T08:56:26;2.80;;;2.60;;
10977;SDS011;5542;48.272;10.794;2023-07-29T08:58:55;2.80;;;2.60;;
10977;SDS011;5542;48.272;10.794;2023-07-29T09:01:22;2.83;;;2.63;;
10977;SDS011;5542;48.272;10.794;2023-07-29T09:03:51;3.00;;;2.80;;
10977;SDS011;5542;48.272;10.794;2023-07-29T09:06:19;3.07;;;2.80;;
10977;SDS011;5542;48.272;10.794;2023-07-29T09:08:47;2.97;;;2.75;;
10977;SDS011;5542;48.272;10.794;2023-07-29T09:11:15;3.13;;;2.92;;
10977;SDS011;5542;48.272;10.794;2023-07-29T09:13:42;3.42;;;3.10;;
10977;SDS011;5542;48.272;10.794;2023-07-29T09:16:09;3.33;;;2.92;;
10977;SDS011;5542;48.272;10.794;2023-07-29T09:18:35;3.40;;;2.65;;
10977;SDS011;5542;48.272;10.794;2023-07-29T09:21:02;2.80;;;2.60;;
10977;SDS011;5542;48.272;10.794;2023-07-29T09:23:34;3.03;;;2.80;;
10977;SDS011;5542;48.272;10.794;2023-07-29T09:26:05;2.80;;;2.60;;
10977;SDS011;5542;48.272;10.794;2023-07-29T09:28:33;2.93;;;2.63;;
10977;SDS011;5542;48.272;10.794;2023-07-29T09:31:00;3.13;;;2.60;;
10977;SDS011;5542;48.272;10.794;2023-07-29T09:33:27;2.97;;;2.78;;
10977;SDS011;5542;48.272;10.794;2023-07-29T09:35:54;3.50;;;2.70;;
10977;SDS011;5542;48.272;10.794;2023-07-29T09:38:25;3.00;;;2.80;;
10977;SDS011;5542;48.272;10.794;2023-07-29T09:40:56;3.65;;;3.35;;
10977;SDS011;5542;48.272;10.794;2023-07-29T09:43:25;2.70;;;2.50;;
10977;SDS011;5542;48.272;10.794;2023-07-29T09:45:52;2.53;;;2.33;;
10977;SDS011;5542;48.272;10.794;2023-07-29T09:48:19;2.90;;;2.70;;
10977;SDS011;5542;48.272;10.794;2023-07-29T09:50:48;2.70;;;2.50;;
10977;SDS011;5542;48.272;10.794;2023-07-29T09:53:15;2.45;;;2.25;;
10977;SDS011;5542;48.272;10.794;2023-07-29T09:55:45;2.33;;;2.20;;
10977;SDS011;5542;48.272;10.794;2023-07-29T09:58:14;2.90;;;2.60;;
10977;SDS011;5542;48.272;10.794;2023-07-29T10:00:41;2.67;;;2.47;;
10977;SDS011;5542;48.272;10.794;2023-07-29T10:03:08;2.65;;;2.45;;
10977;SDS011;5542;48.272;10.794;2023-07-29T10:05:34;2.78;;;2.58;;
10977;SDS011;5542;48.272;10.794;2023-07-29T10:08:01;2.50;;;2.30;;
10977;SDS011;5542;48.272;10.794;2023-07-29T10:10:29;2.33;;;2.22;;
10977;SDS011;5542;48.272;10.794;2023-07-29T10:12:56;2.50;;;2.30;;
10977;SDS011;5542;48.272;10.794;2023-07-29T10:15:25;2.20;;;2.05;;
10977;SDS011;5542;48.272;10.794;2023-07-29T10:17:52;2.13;;;1.90;;
10977;SDS011;5542;48.272;10.794;2023-07-29T10:20:19;2.00;;;1.90;;
10977;SDS011;5542;48.272;10.794;2023-07-29T10:22:46;3.08;;;2.15;;
10977;SDS011;5542;48.272;10.794;2023-07-29T10:25:15;1.92;;;1.83;;
10977;SDS011;5542;48.272;10.794;2023-07-29T10:27:43;2.78;;;2.58;;
10977;SDS011;5542;48.272;10.794;2023-07-29T10:30:15;2.50;;;2.28;;
10977;SDS011;5542;48.272;10.794;2023-07-29T10:32:44;2.03;;;1.90;;
10977;SDS011;5542;48.272;10.794;2023-07-29T10:35:11;2.22;;;2.03;;
10977;SDS011;5542;48.272;10.794;2023-07-29T10:37:38;2.05;;;1.80;;
10977;SDS011;5542;48.272;10.794;2023-07-29T10:40:07;2.10;;;2.00;;
10977;SDS011;5542;48.272;10.794;2023-07-29T10:42:35;2.50;;;2.10;;
10977;SDS011;5542;48.272;10.794;2023-07-29T10:45:16;1.90;;;1.80;;
10977;SDS011;5542;48.272;10.794;2023-07-29T10:47:45;2.23;;;2.03;;
10977;SDS011;5542;48.272;10.794;2023-07-29T10:50:17;2.05;;;1.95;;
10977;SDS011;5542;48.272;10.794;2023-07-29T10:52:46;2.22;;;2.05;;
10977;SDS011;5542;48.272;10.794;2023-07-29T10:55:28;3.10;;;2.05;;
10977;SDS011;5542;48.272;10.794;2023-07-29T10:58:05;2.45;;;2.28;;
10977;SDS011;5542;48.272;10.794;2023-07-29T11:00:33;2.13;;;1.92;;
10977;SDS011;5542;48.272;10.794;2023-07-29T11:03:02;2.15;;;1.98;;
10977;SDS011;5542;48.272;10.794;2023-07-29T11:05:42;2.45;;;2.25;;
10977;SDS011;5542;48.272;10.794;2023-07-29T11:08:20;2.25;;;2.15;;
10977;SDS011;5542;48.272;10.794;2023-07-29T11:10:59;3.05;;;2.35;;
10977;SDS011;5542;48.272;10.794;2023-07-29T11:13:27;2.28;;;2.10;;
10977;SDS011;5542;48.272;10.794;2023-07-29T11:15:54;2.30;;;2.10;;
10977;SDS011;5542;48.272;10.794;2023-07-29T11:18:24;2.40;;;2.08;;
10977;SDS011;5542;48.272;10.794;2023-07-29T11:20:54;2.55;;;2.33;;
10977;SDS011;5542;48.272;10.794;2023-07-29T11:23:27;2.70;;;2.50;;
10977;SDS011;5542;48.272;10.794;2023-07-29T11:25:55;2.75;;;2.53;;
10977;SDS011;5542;48.272;10.794;2023-07-29T11:28:23;2.42;;;2.25;;
10977;SDS011;5542;48.272;10.794;2023-07-29T11:30:50;2.60;;;2.40;;
10977;SDS011;5542;48.272;10.794;2023-07-29T11:33:17;2.37;;;2.27;;
10977;SDS011;5542;48.272;10.794;2023-07-29T11:35:46;2.70;;;2.50;;
10977;SDS011;5542;48.272;10.794;2023-07-29T11:38:14;2.50;;;2.30;;
10977;SDS011;5542;48.272;10.794;2023-07-29T11:40:42;2.88;;;2.67;;
10977;SDS011;5542;48.272;10.794;2023-07-29T11:43:09;2.30;;;2.10;;
10977;SDS011;5542;48.272;10.794;2023-07-29T11:45:43;2.55;;;2.35;;
10977;SDS011;5542;48.272;10.794;2023-07-29T11:48:09;2.60;;;2.40;;
10977;SDS011;5542;48.272;10.794;2023-07-29T11:50:36;2.85;;;2.60;;
10977;SDS011;5542;48.272;10.794;2023-07-29T11:53:04;2.22;;;2.05;;
10977;SDS011;5542;48.272;10.794;2023-07-29T11:55:31;2.50;;;2.30;;
10977;SDS011;5542;48.272;10.794;2023-07-29T11:57:59;3.00;;;2.80;;
10977;SDS011;5542;48.272;10.794;2023-07-29T12:00:28;3.08;;;2.78;;
10977;SDS011;5542;48.272;10.794;2023-07-29T12:02:54;2.53;;;2.33;;
10977;SDS011;5542;48.272;10.794;2023-07-29T12:05:22;2.63;;;2.45;;
10977;SDS011;5542;48.272;10.794;2023-07-29T12:07:50;4.65;;;4.25;;
10977;SDS011;5542;48.272;10.794;2023-07-29T12:10:18;2.72;;;2.53;;
10977;SDS011;5542;48.272;10.794;2023-07-29T12:12:46;2.30;;;2.20;;
10977;SDS011;5542;48.272;10.794;2023-07-29T12:15:13;2.72;;;2.53;;
10977;SDS011;5542;48.272;10.794;2023-07-29T12:17:48;2.20;;;2.10;;
10977;SDS011;5542;48.272;10.794;2023-07-29T12:20:14;2.30;;;2.20;;
10977;SDS011;5542;48.272;10.794;2023-07-29T12:22:41;2.15;;;2.05;;
10977;SDS011;5542;48.272;10.794;2023-07-29T12:25:08;2.58;;;2.28;;
10977;SDS011;5542;48.272;10.794;2023-07-29T12:27:36;1.90;;;1.80;;
10977;SDS011;5542;48.272;10.794;2023-07-29T12:30:03;2.85;;;2.65;;
10977;SDS011;5542;48.272;10.794;2023-07-29T12:32:31;3.15;;;2.75;;
10977;SDS011;5542;48.272;10.794;2023-07-29T12:34:57;3.85;;;2.38;;
10977;SDS011;5542;48.272;10.794;2023-07-29T12:37:30;2.60;;;2.40;;
10977;SDS011;5542;48.272;10.794;2023-07-29T12:39:57;2.50;;;2.30;;
10977;SDS011;5542;48.272;10.794;2023-07-29T12:42:24;2.22;;;2.13;;
10977;SDS011;5542;48.272;10.794;2023-07-29T12:44:52;2.80;;;2.60;;
10977;SDS011;5542;48.272;10.794;2023-07-29T12:47:18;2.73;;;2.53;;
10977;SDS011;5542;48.272;10.794;2023-07-29T12:49:45;2.80;;;2.60;;
10977;SDS011;5542;48.272;10.794;2023-07-29T12:52:11;2.40;;;2.30;;
10977;SDS011;5542;48.272;10.794;2023-07-29T12:54:38;2.42;;;2.22;;
10977;SDS011;5542;48.272;10.794;2023-07-29T12:57:07;2.42;;;2.30;;
10977;SDS011;5542;48.272;10.794;2023-07-29T12:59:34;1.95;;;1.85;;
10977;SDS011;5542;48.272;10.794;2023-07-29T13:02:01;2.25;;;2.13;;
10977;SDS011;5542;48.272;10.794;2023-07-29T13:04:28;2.20;;;2.10;;
10977;SDS011;5542;48.272;10.794;2023-07-29T13:06:55;2.40;;;2.20;;
10977;SDS011;5542;48.272;10.794;2023-07-29T13:09:22;1.93;;;1.83;;
10977;SDS011;5542;48.272;10.794;2023-07-29T13:11:48;2.35;;;2.17;;
10977;SDS011;5542;48.272;10.794;2023-07-29T13:14:15;2.35;;;2.25;;
10977;SDS011;5542;48.272;10.794;2023-07-29T13:16:41;2.55;;;2.35;;
10977;SDS011;5542;48.272;10.794;2023-07-29T13:19:09;2.13;;;2.03;;
10977;SDS011;5542;48.272;10.794;2023-07-29T13:21:36;2.63;;;2.42;;
10977;SDS011;5542;48.272;10.794;2023-07-29T13:24:02;2.20;;;2.10;;
10977;SDS011;5542;48.272;10.794;2023-07-29T13:26:29;2.13;;;2.03;;
10977;SDS011;5542;48.272;10.794;2023-07-29T13:28:56;2.08;;;1.98;;
10977;SDS011;5542;48.272;10.794;2023-07-29T13:31:22;2.38;;;2.25;;
10977;SDS011;5542;48.272;10.794;2023-07-29T13:33:49;2.33;;;2.20;;
10977;SDS011;5542;48.272;10.794;2023-07-29T13:36:17;2.15;;;2.05;;
10977;SDS011;5542;48.272;10.794;2023-07-29T13:38:43;2.25;;;2.15;;
10977;SDS011;5542;48.272;10.794;2023-07-29T13:41:10;2.17;;;2.08;;
10977;SDS011;5542;48.272;10.794;2023-07-29T13:43:36;2.23;;;2.13;;
10977;SDS011;5542;48.272;10.794;2023-07-29T13:46:03;2.22;;;2.03;;
10977;SDS011;5542;48.272;10.794;2023-07-29T13:48:30;1.90;;;1.80;;
10977;SDS011;5542;48.272;10.794;2023-07-29T13:50:58;2.13;;;2.03;;
10977;SDS011;5542;48.272;10.794;2023-07-29T13:53:26;2.78;;;2.10;;
10977;SDS011;5542;48.272;10.794;2023-07-29T13:55:52;1.70;;;1.60;;
10977;SDS011;5542;48.272;10.794;2023-07-29T13:58:19;1.90;;;1.80;;
10977;SDS011;5542;48.272;10.794;2023-07-29T14:00:45;1.95;;;1.85;;
10977;SDS011;5542;48.272;10.794;2023-07-29T14:03:12;1.95;;;1.85;;
10977;SDS011;5542;48.272;10.794;2023-07-29T14:05:38;1.83;;;1.73;;
10977;SDS011;5542;48.272;10.794;2023-07-29T14:08:05;1.90;;;1.80;;
10977;SDS011;5542;48.272;10.794;2023-07-29T14:10:33;2.08;;;1.98;;
10977;SDS011;5542;48.272;10.794;2023-07-29T14:12:59;2.00;;;1.90;;
10977;SDS011;5542;48.272;10.794;2023-07-29T14:15:26;1.92;;;1.83;;
10977;SDS011;5542;48.272;10.794;2023-07-29T14:17:53;2.47;;;2.28;;
10977;SDS011;5542;48.272;10.794;2023-07-29T14:20:20;1.83;;;1.73;;
10977;SDS011;5542;48.272;10.794;2023-07-29T14:22:46;3.78;;;2.42;;
10977;SDS011;5542;48.272;10.794;2023-07-29T14:25:13;1.95;;;1.80;;
10977;SDS011;5542;48.272;10.794;2023-07-29T14:27:42;2.20;;;2.10;;
10977;SDS011;5542;48.272;10.794;2023-07-29T14:30:08;2.33;;;2.20;;
10977;SDS011;5542;48.272;10.794;2023-07-29T14:32:35;1.80;;;1.70;;
10977;SDS011;5542;48.272;10.794;2023-07-29T14:35:03;1.90;;;1.80;;
10977;SDS011;5542;48.272;10.794;2023-07-29T14:37:30;1.95;;;1.85;;
10977;SDS011;5542;48.272;10.794;2023-07-29T14:39:57;2.70;;;1.90;;
10977;SDS011;5542;48.272;10.794;2023-07-29T14:42:23;2.60;;;2.40;;
10977;SDS011;5542;48.272;10.794;2023-07-29T14:44:51;1.90;;;1.80;;
10977;SDS011;5542;48.272;10.794;2023-07-29T14:47:18;1.50;;;1.40;;
10977;SDS011;5542;48.272;10.794;2023-07-29T14:49:45;3.53;;;1.73;;